createdAt,value
2023-09-28T00:03:21.645Z,95889.00
2023-09-28T00:07:24.553Z,95877.00
2023-09-28T00:11:27.367Z,95875.00
2023-09-28T00:15:31.760Z,95882.00
2023-09-28T00:19:34.639Z,95877.00
2023-09-28T00:23:37.632Z,95878.00
2023-09-28T00:27:41.017Z,95880.00
2023-09-28T00:31:45.899Z,95883.00
2023-09-28T00:35:49.103Z,95886.00
2023-09-28T00:39:56.134Z,95892.00
2023-09-28T00:43:59.000Z,95888.00
2023-09-28T00:48:06.131Z,95891.00
2023-09-28T00:52:09.562Z,95899.00
2023-09-28T00:56:14.049Z,95898.00
2023-09-28T01:00:22.736Z,95901.00
2023-09-28T01:04:27.408Z,95893.00
2023-09-28T01:08:30.219Z,95902.00
2023-09-28T01:12:33.537Z,95900.00
2023-09-28T01:16:38.132Z,95907.00
2023-09-28T01:20:42.354Z,95907.00
2023-09-28T01:24:46.705Z,95899.00
2023-09-28T01:28:49.601Z,95897.00
2023-09-28T01:32:53.885Z,95908.00
2023-09-28T01:36:56.706Z,95905.00
2023-09-28T01:41:01.180Z,95904.00
2023-09-28T01:45:04.889Z,95902.00
2023-09-28T01:49:07.710Z,95903.00
2023-09-28T01:53:10.570Z,95901.00
2023-09-28T01:57:14.783Z,95897.00
2023-09-28T02:01:23.611Z,95898.00
2023-09-28T02:05:28.191Z,95902.00
2023-09-28T02:09:31.298Z,95901.00
2023-09-28T02:13:35.463Z,95901.00
2023-09-28T02:17:38.617Z,95906.00
2023-09-28T02:21:41.412Z,95908.00
2023-09-28T02:25:44.205Z,95910.00
2023-09-28T02:29:48.680Z,95909.00
2023-09-28T02:33:52.348Z,95913.00
2023-09-28T02:37:55.596Z,95915.00
2023-09-28T02:41:58.492Z,95916.00
2023-09-28T02:46:02.772Z,95925.00
2023-09-28T02:50:08.753Z,95914.00
2023-09-28T02:54:12.111Z,95920.00
2023-09-28T02:58:14.902Z,95925.00
2023-09-28T03:02:21.249Z,95926.00
2023-09-28T03:06:24.082Z,95926.00
2023-09-28T03:10:29.212Z,95924.00
2023-09-28T03:14:33.966Z,95926.00
2023-09-28T03:18:38.080Z,95931.00
2023-09-28T03:22:40.865Z,95925.00
2023-09-28T03:26:49.028Z,95933.00
2023-09-28T03:30:56.783Z,95928.00
2023-09-28T03:35:00.934Z,95935.00
2023-09-28T03:39:04.211Z,95933.00
2023-09-28T03:43:06.991Z,95939.00
2023-09-28T03:47:09.820Z,95940.00
2023-09-28T03:51:14.035Z,95938.00
2023-09-28T03:55:19.036Z,95953.00
2023-09-28T03:59:21.841Z,95947.00
2023-09-28T04:03:24.774Z,95950.00
2023-09-28T04:07:29.291Z,95938.00
2023-09-28T04:11:32.073Z,95940.00
2023-09-28T04:15:34.888Z,95943.00
2023-09-28T04:19:37.668Z,95944.00
2023-09-28T04:23:41.810Z,95950.00
2023-09-28T04:27:44.645Z,95939.00
2023-09-28T04:31:47.517Z,95950.00
2023-09-28T04:35:51.581Z,95948.00
2023-09-28T04:39:55.957Z,95944.00
2023-09-28T04:43:59.282Z,95949.00
2023-09-28T04:48:02.171Z,95954.00
2023-09-28T04:52:05.193Z,95953.00
2023-09-28T04:56:14.098Z,95942.00
2023-09-28T05:00:17.871Z,95940.00
2023-09-28T05:04:20.808Z,95943.00
2023-09-28T05:08:24.820Z,95944.00
2023-09-28T05:12:29.071Z,95942.00
2023-09-28T05:16:32.016Z,95946.00
2023-09-28T05:20:34.972Z,95941.00
2023-09-28T05:24:37.921Z,95938.00
2023-09-28T05:28:42.734Z,95945.00
2023-09-28T05:32:45.808Z,95945.00
2023-09-28T05:36:48.736Z,95951.00
2023-09-28T05:40:51.656Z,95955.00
2023-09-28T05:44:56.055Z,95945.00
2023-09-28T05:48:59.403Z,95954.00
2023-09-28T05:53:02.320Z,95949.00
2023-09-28T05:57:05.871Z,95961.00
2023-09-28T06:01:14.785Z,95955.00
2023-09-28T06:05:18.224Z,95967.00
2023-09-28T06:09:21.186Z,95974.00
2023-09-28T06:13:24.350Z,95960.00
2023-09-28T06:17:28.658Z,95962.00
2023-09-28T06:21:31.581Z,95958.00
2023-09-28T06:25:34.417Z,95971.00
2023-09-28T06:29:37.270Z,95959.00
2023-09-28T06:33:41.499Z,95973.00
2023-09-28T06:37:44.374Z,95977.00
2023-09-28T06:41:47.246Z,95979.00
2023-09-28T06:45:59.145Z,95982.00
2023-09-28T06:50:05.766Z,95996.00
2023-09-28T06:54:11.400Z,96002.00
2023-09-28T06:58:15.736Z,96007.00
2023-09-28T07:02:18.641Z,96002.00
2023-09-28T07:06:23.934Z,96010.00
2023-09-28T07:10:27.196Z,96012.00
2023-09-28T07:14:30.037Z,96011.00
2023-09-28T07:18:32.926Z,96024.00
2023-09-28T07:22:37.237Z,96034.00
2023-09-28T07:26:40.074Z,96038.00
2023-09-28T07:30:43.373Z,96034.00
2023-09-28T07:34:46.816Z,96040.00
2023-09-28T07:38:51.401Z,96040.00
2023-09-28T07:42:54.336Z,96044.00
2023-09-28T07:46:57.279Z,96055.00
2023-09-28T07:51:00.534Z,96056.00
2023-09-28T07:55:05.262Z,96057.00
2023-09-28T07:59:08.149Z,96063.00
2023-09-28T08:03:11.716Z,96062.00
2023-09-28T08:07:14.721Z,96059.00
2023-09-28T08:11:19.041Z,96067.00
2023-09-28T08:15:35.321Z,96064.00
2023-09-28T08:19:39.375Z,96072.00
2023-09-28T08:23:42.980Z,96069.00
2023-09-28T08:27:47.397Z,96071.00
2023-09-28T08:31:50.778Z,96069.00
2023-09-28T08:35:53.996Z,96073.00
2023-09-28T08:39:58.987Z,96070.00
2023-09-28T08:44:06.492Z,96076.00
2023-09-28T08:48:12.796Z,96080.00
2023-09-28T08:52:16.674Z,96080.00
2023-09-28T08:56:20.015Z,96078.00
2023-09-28T09:00:25.951Z,96083.00
2023-09-28T09:04:30.440Z,96087.00
2023-09-28T09:08:36.486Z,96092.00
2023-09-28T09:12:39.381Z,96089.00
2023-09-28T09:16:43.814Z,96095.00
2023-09-28T09:20:47.460Z,96087.00
2023-09-28T09:24:55.468Z,96086.00
2023-09-28T09:29:01.872Z,96084.00
2023-09-28T09:33:09.273Z,96086.00
2023-09-28T09:37:14.698Z,96083.00
2023-09-28T09:41:17.610Z,96082.00
2023-09-28T09:45:21.465Z,96081.00
2023-09-28T09:49:27.173Z,96077.00
2023-09-28T09:53:32.035Z,96074.00
2023-09-28T09:57:37.060Z,96079.00
2023-09-28T10:01:41.364Z,96078.00
2023-09-28T10:05:47.270Z,96078.00
2023-09-28T10:09:50.645Z,96073.00
2023-09-28T10:13:54.622Z,96070.00
2023-09-28T10:17:58.101Z,96074.00
2023-09-28T10:22:02.729Z,96075.00
2023-09-28T10:26:11.516Z,96074.00
2023-09-28T10:30:19.206Z,96078.00
2023-09-28T10:34:23.745Z,96075.00
2023-09-28T10:38:29.567Z,96078.00
2023-09-28T10:42:33.785Z,96097.00
2023-09-28T10:46:36.775Z,96081.00
2023-09-28T10:50:40.506Z,96078.00
2023-09-28T10:54:46.225Z,96087.00
2023-09-28T10:58:49.533Z,96082.00
2023-09-28T11:02:53.671Z,96085.00
2023-09-28T11:06:57.054Z,96097.00
2023-09-28T11:11:03.032Z,96091.00
2023-09-28T11:15:08.094Z,96088.00
2023-09-28T11:19:11.485Z,96090.00
2023-09-28T11:23:15.663Z,96093.00
2023-09-28T11:27:20.210Z,96097.00
2023-09-28T11:31:23.494Z,96093.00
2023-09-28T11:35:27.189Z,96091.00
2023-09-28T11:39:30.387Z,96086.00
2023-09-28T11:43:46.835Z,96085.00
2023-09-28T11:47:50.843Z,96082.00
2023-09-28T11:51:54.972Z,96075.00
2023-09-28T11:55:57.910Z,96076.00
2023-09-28T12:00:02.232Z,96072.00
2023-09-28T12:04:09.527Z,96074.00
2023-09-28T12:08:12.478Z,96078.00
2023-09-28T12:12:15.381Z,96075.00
2023-09-28T12:16:20.530Z,96068.00
2023-09-28T12:20:23.656Z,96064.00
2023-09-28T12:24:27.372Z,96059.00
2023-09-28T12:28:30.289Z,96058.00
2023-09-28T12:32:34.937Z,96058.00
2023-09-28T12:36:39.116Z,96051.00
2023-09-28T12:40:42.095Z,96048.00
2023-09-28T12:44:45.143Z,96042.00
2023-09-28T12:48:49.396Z,96045.00
2023-09-28T12:52:53.086Z,96036.00
2023-09-28T12:56:56.135Z,96038.00
2023-09-28T13:01:00.043Z,96036.00
2023-09-28T13:05:05.577Z,96038.00
2023-09-28T13:09:09.221Z,96047.00
2023-09-28T13:13:13.072Z,96044.00
2023-09-28T13:17:17.446Z,96033.00
2023-09-28T13:21:23.481Z,96033.00
2023-09-28T13:25:27.256Z,96035.00
2023-09-28T13:29:30.773Z,96033.00
2023-09-28T13:33:35.257Z,96031.00
2023-09-28T13:37:39.544Z,96043.00
2023-09-28T13:41:43.458Z,96047.00
2023-09-28T13:45:48.519Z,96051.00
2023-09-28T13:49:52.311Z,96051.00
2023-09-28T13:53:56.720Z,96052.00
2023-09-28T13:57:59.481Z,96049.00
2023-09-28T14:02:02.469Z,96039.00
2023-09-28T14:06:06.986Z,96030.00
2023-09-28T14:10:12.129Z,96038.00
2023-09-28T14:14:15.839Z,96032.00
2023-09-28T14:18:18.881Z,96031.00
2023-09-28T14:22:22.762Z,96019.00
2023-09-28T14:26:27.079Z,96010.00
2023-09-28T14:30:30.099Z,96007.00
2023-09-28T14:34:33.075Z,95996.00
2023-09-28T14:38:36.083Z,96001.00
2023-09-28T14:42:41.825Z,95993.00
2023-09-28T14:46:44.751Z,95994.00
2023-09-28T14:50:47.736Z,95992.00
2023-09-28T14:54:50.679Z,95986.00
2023-09-28T14:58:56.929Z,95992.00
2023-09-28T15:03:01.262Z,95990.00
2023-09-28T15:07:04.226Z,95981.00
2023-09-28T15:11:07.256Z,95987.00
2023-09-28T15:15:11.874Z,95984.00
2023-09-28T15:19:14.761Z,95979.00
2023-09-28T15:23:17.788Z,95974.00
2023-09-28T15:27:20.708Z,95974.00
2023-09-28T15:31:24.980Z,95971.00
2023-09-28T15:35:28.288Z,95970.00
2023-09-28T15:39:31.269Z,95955.00
2023-09-28T15:43:35.786Z,95951.00
2023-09-28T15:47:41.434Z,95950.00
2023-09-28T15:51:44.355Z,95952.00
2023-09-28T15:55:47.228Z,95951.00
2023-09-28T15:59:50.100Z,95952.00
2023-09-28T16:03:55.348Z,95949.00
2023-09-28T16:07:59.819Z,95949.00
2023-09-28T16:12:03.062Z,95945.00
2023-09-28T16:16:06.219Z,95961.00
2023-09-28T16:20:12.676Z,95964.00
2023-09-28T16:24:15.727Z,95960.00
2023-09-28T16:28:18.663Z,95967.00
2023-09-28T16:32:22.246Z,95971.00
2023-09-28T16:36:29.117Z,95970.00
2023-09-28T16:40:32.096Z,95977.00
2023-09-28T16:44:35.058Z,95977.00
2023-09-28T16:48:38.150Z,95982.00
2023-09-28T16:52:42.690Z,95983.00
2023-09-28T16:56:45.645Z,95974.00
2023-09-28T17:00:48.715Z,95982.00
2023-09-28T17:04:51.789Z,95989.00
2023-09-28T17:08:56.272Z,95985.00
2023-09-28T17:12:59.405Z,95976.00
2023-09-28T17:17:02.393Z,95975.00
2023-09-28T17:21:05.531Z,95982.00
2023-09-28T17:25:11.119Z,95986.00
2023-09-28T17:29:14.212Z,95988.00
2023-09-28T17:33:17.172Z,95984.00
2023-09-28T17:37:20.141Z,95996.00
2023-09-28T17:41:24.449Z,96003.00
2023-09-28T17:45:27.417Z,96007.00
2023-09-28T17:49:30.473Z,96013.00
2023-09-28T17:53:33.410Z,96015.00
2023-09-28T17:57:38.265Z,96019.00
2023-09-28T18:01:41.176Z,96024.00
2023-09-28T18:05:44.266Z,96036.00
2023-09-28T18:09:47.503Z,96039.00
2023-09-28T18:13:51.956Z,96040.00
2023-09-28T18:17:55.620Z,96053.00
2023-09-28T18:21:58.570Z,96047.00
2023-09-28T18:26:02.145Z,96049.00
2023-09-28T18:30:09.908Z,96053.00
2023-09-28T18:34:12.950Z,96049.00
2023-09-28T18:38:17.478Z,96052.00
2023-09-28T18:42:20.457Z,96063.00
2023-09-28T18:46:24.721Z,96054.00
2023-09-28T18:50:27.688Z,96056.00
2023-09-28T18:54:30.578Z,96052.00
2023-09-28T18:58:33.520Z,96057.00
2023-09-28T19:02:38.467Z,96056.00
2023-09-28T19:06:41.608Z,96059.00
2023-09-28T19:10:45.007Z,96052.00
2023-09-28T19:14:47.942Z,96042.00
2023-09-28T19:18:52.526Z,96039.00
2023-09-28T19:22:55.577Z,96041.00
2023-09-28T19:26:58.479Z,96038.00
2023-09-28T19:31:01.419Z,96045.00
2023-09-28T19:35:06.417Z,96044.00
2023-09-28T19:39:09.363Z,96053.00
2023-09-28T19:43:12.377Z,96055.00
2023-09-28T19:47:15.415Z,96052.00
2023-09-28T19:51:20.722Z,96051.00
2023-09-28T19:55:23.841Z,96052.00
2023-09-28T19:59:26.792Z,96064.00
2023-09-28T20:03:29.940Z,96058.00
2023-09-28T20:07:34.704Z,96060.00
2023-09-28T20:11:38.729Z,96058.00
2023-09-28T20:15:41.725Z,96053.00
2023-09-28T20:19:45.460Z,96056.00
2023-09-28T20:23:49.774Z,96058.00
2023-09-28T20:27:52.739Z,96044.00
2023-09-28T20:31:57.157Z,96044.00
2023-09-28T20:36:00.124Z,96047.00
2023-09-28T20:40:04.727Z,96046.00
2023-09-28T20:44:07.635Z,96036.00
2023-09-28T20:48:10.771Z,96045.00
2023-09-28T20:52:13.747Z,96047.00
2023-09-28T20:56:18.130Z,96051.00
2023-09-28T21:00:21.396Z,96048.00
2023-09-28T21:04:24.390Z,96039.00
2023-09-28T21:08:28.705Z,96042.00
2023-09-28T21:12:33.049Z,96039.00
2023-09-28T21:16:36.088Z,96041.00
2023-09-28T21:20:39.062Z,96033.00
2023-09-28T21:24:42.254Z,96036.00
2023-09-28T21:28:47.371Z,96043.00
2023-09-28T21:32:50.504Z,96039.00
2023-09-28T21:36:53.518Z,96041.00
2023-09-28T21:40:56.895Z,96058.00
2023-09-28T21:45:06.715Z,96051.00
2023-09-28T21:49:09.642Z,96052.00
2023-09-28T21:53:12.850Z,96053.00
2023-09-28T21:57:15.760Z,96058.00
2023-09-28T22:01:20.017Z,96051.00
2023-09-28T22:05:23.184Z,96049.00
2023-09-28T22:09:26.403Z,96041.00
2023-09-28T22:13:29.468Z,96037.00
2023-09-28T22:17:33.841Z,96038.00
2023-09-28T22:21:37.078Z,96042.00
2023-09-28T22:25:39.997Z,96043.00
2023-09-28T22:29:42.919Z,96045.00
2023-09-28T22:33:47.382Z,96040.00
2023-09-28T22:37:50.322Z,96039.00
2023-09-28T22:41:53.222Z,96031.00
2023-09-28T22:45:56.190Z,96032.00
2023-09-28T22:50:01.318Z,96033.00
2023-09-28T22:54:04.256Z,96029.00
2023-09-28T22:58:07.518Z,96039.00
2023-09-28T23:02:10.487Z,96030.00
2023-09-28T23:06:14.997Z,96033.00
2023-09-28T23:10:18.162Z,96038.00
2023-09-28T23:14:21.804Z,96042.00
2023-09-28T23:18:24.791Z,96049.00
2023-09-28T23:22:29.265Z,96043.00
2023-09-28T23:26:32.202Z,96043.00
2023-09-28T23:30:39.026Z,96045.00
2023-09-28T23:34:41.917Z,96046.00
2023-09-28T23:38:47.584Z,96047.00
2023-09-28T23:42:51.090Z,96048.00
2023-09-28T23:46:54.149Z,96048.00
2023-09-28T23:50:58.217Z,96045.00
2023-09-28T23:55:03.498Z,96056.00
2023-09-28T23:59:07.680Z,96060.00
